createdAt,value
2022-10-11T00:01:19.997Z,88.57
2022-10-11T00:04:01.831Z,88.79
2022-10-11T00:06:43.950Z,88.95
2022-10-11T00:09:25.621Z,89.21
2022-10-11T00:12:07.416Z,89.32
2022-10-11T00:14:49.105Z,89.50
2022-10-11T00:17:32.026Z,89.66
2022-10-11T00:20:14.210Z,89.56
2022-10-11T00:22:55.800Z,89.79
2022-10-11T00:25:37.391Z,89.96
2022-10-11T00:28:19.028Z,89.98
2022-10-11T00:31:00.985Z,89.91
2022-10-11T00:33:42.794Z,89.95
2022-10-11T00:36:24.578Z,89.85
2022-10-11T00:39:06.718Z,90.00
2022-10-11T00:41:49.429Z,90.12
2022-10-11T00:44:32.725Z,90.34
2022-10-11T00:47:18.779Z,90.35
2022-10-11T00:50:01.942Z,90.72
2022-10-11T00:52:50.159Z,90.79
2022-10-11T00:55:37.101Z,90.89
2022-10-11T00:58:19.302Z,91.02
2022-10-11T01:01:01.194Z,91.02
2022-10-11T01:03:44.527Z,91.23
2022-10-11T01:06:26.327Z,91.25
2022-10-11T01:09:08.523Z,91.27
2022-10-11T01:11:52.777Z,91.43
2022-10-11T01:14:45.320Z,91.59
2022-10-11T01:17:44.623Z,91.58
2022-10-11T01:20:32.152Z,91.92
2022-10-11T01:23:38.522Z,92.01
2022-10-11T01:26:54.765Z,92.44
2022-10-11T01:30:02.431Z,92.83
2022-10-11T01:32:57.731Z,93.18
2022-10-11T01:35:47.638Z,93.23
2022-10-11T01:38:38.012Z,93.66
2022-10-11T01:41:25.741Z,93.63
2022-10-11T01:44:09.356Z,93.47
2022-10-11T01:46:54.142Z,93.61
2022-10-11T01:49:35.730Z,93.42
2022-10-11T01:52:17.421Z,93.34
2022-10-11T01:55:21.141Z,93.28
2022-10-11T01:58:26.679Z,93.28
2022-10-11T02:01:56.658Z,93.48
2022-10-11T02:04:48.020Z,93.52
2022-10-11T02:07:42.000Z,93.52
2022-10-11T02:10:32.098Z,93.57
2022-10-11T02:13:20.740Z,93.57
2022-10-11T02:16:08.031Z,93.35
2022-10-11T02:18:52.997Z,93.30
2022-10-11T02:21:38.829Z,93.34
2022-10-11T02:24:33.812Z,93.55
2022-10-11T02:27:19.505Z,93.24
2022-10-11T02:30:05.599Z,93.17
2022-10-11T02:32:49.168Z,93.18
2022-10-11T02:35:36.936Z,93.38
2022-10-11T02:38:26.109Z,93.55
2022-10-11T02:41:39.880Z,92.91
2022-10-11T02:44:33.449Z,92.93
2022-10-11T02:47:15.315Z,92.97
2022-10-11T02:49:59.533Z,92.61
2022-10-11T02:52:41.799Z,92.61
2022-10-11T02:55:23.727Z,92.39
2022-10-11T02:58:05.334Z,92.40
2022-10-11T03:00:46.970Z,92.12
2022-10-11T03:03:28.660Z,92.06
2022-10-11T03:06:10.355Z,92.09
2022-10-11T03:08:52.043Z,92.25
2022-10-11T03:11:33.678Z,92.42
2022-10-11T03:14:15.322Z,92.44
2022-10-11T03:17:12.069Z,92.42
2022-10-11T03:19:58.879Z,92.66
2022-10-11T03:22:40.875Z,92.56
2022-10-11T03:25:22.567Z,92.53
2022-10-11T03:28:04.847Z,93.07
2022-10-11T03:30:51.170Z,93.25
2022-10-11T03:33:33.065Z,93.21
2022-10-11T03:36:14.757Z,93.13
2022-10-11T03:38:56.448Z,93.08
2022-10-11T03:41:38.139Z,92.88
2022-10-11T03:44:19.829Z,92.89
2022-10-11T03:47:01.520Z,93.05
2022-10-11T03:49:43.922Z,92.82
2022-10-11T03:52:26.030Z,92.80
2022-10-11T03:55:08.438Z,92.55
2022-10-11T03:57:50.127Z,92.81
2022-10-11T04:00:32.638Z,92.50
2022-10-11T04:03:14.534Z,92.72
2022-10-11T04:05:56.224Z,92.41
2022-10-11T04:08:37.915Z,92.47
2022-10-11T04:11:19.606Z,92.53
2022-10-11T04:14:01.295Z,92.56
2022-10-11T04:16:43.090Z,92.48
2022-10-11T04:19:24.780Z,92.53
2022-10-11T04:22:06.471Z,92.22
2022-10-11T04:24:48.162Z,92.14
2022-10-11T04:27:30.468Z,92.02
2022-10-11T04:30:12.880Z,91.93
2022-10-11T04:32:54.567Z,91.60
2022-10-11T04:35:36.257Z,91.74
2022-10-11T04:38:17.845Z,91.46
2022-10-11T04:41:07.347Z,91.41
2022-10-11T04:43:48.939Z,91.18
2022-10-11T04:46:31.060Z,91.14
2022-10-11T04:49:12.803Z,91.05
2022-10-11T04:51:54.492Z,90.88
2022-10-11T04:54:36.797Z,91.05
2022-10-11T04:57:18.489Z,91.18
2022-10-11T05:00:00.076Z,91.14
2022-10-11T05:02:41.871Z,91.03
2022-10-11T05:05:23.561Z,90.80
2022-10-11T05:08:09.451Z,90.85
2022-10-11T05:11:05.802Z,90.66
2022-10-11T05:13:47.782Z,90.73
2022-10-11T05:16:29.487Z,90.90
2022-10-11T05:19:11.164Z,90.90
2022-10-11T05:21:52.857Z,91.01
2022-10-11T05:24:34.606Z,91.06
2022-10-11T05:27:16.749Z,91.09
2022-10-11T05:29:58.645Z,91.14
2022-10-11T05:32:40.336Z,91.18
2022-10-11T05:35:22.744Z,91.33
2022-10-11T05:38:04.435Z,91.27
2022-10-11T05:40:46.438Z,91.14
2022-10-11T05:43:28.942Z,91.25
2022-10-11T05:46:11.895Z,91.18
2022-10-11T05:48:53.655Z,91.18
2022-10-11T05:51:35.259Z,91.31
2022-10-11T05:54:16.934Z,91.28
2022-10-11T05:56:58.625Z,91.34
2022-10-11T05:59:40.317Z,91.33
2022-10-11T06:02:21.915Z,91.47
2022-10-11T06:05:03.800Z,91.54
2022-10-11T06:07:45.594Z,91.58
2022-10-11T06:10:27.285Z,91.59
2022-10-11T06:13:09.594Z,91.70
2022-10-11T06:15:51.284Z,91.81
2022-10-11T06:18:33.075Z,91.87
2022-10-11T06:21:15.689Z,91.95
2022-10-11T06:24:06.083Z,92.02
2022-10-11T06:26:49.499Z,92.07
2022-10-11T06:29:31.694Z,92.02
2022-10-11T06:32:13.937Z,92.05
2022-10-11T06:34:58.709Z,91.99
2022-10-11T06:37:41.589Z,91.83
2022-10-11T06:40:27.050Z,91.68
2022-10-11T06:43:14.654Z,91.70
2022-10-11T06:46:00.373Z,91.34
2022-10-11T06:48:44.392Z,91.28
2022-10-11T06:51:30.674Z,91.05
2022-10-11T06:54:12.987Z,90.81
2022-10-11T06:56:55.300Z,90.32
2022-10-11T06:59:40.004Z,90.17
2022-10-11T07:02:23.580Z,89.93
2022-10-11T07:05:07.041Z,89.04
2022-10-11T07:07:50.846Z,89.04
2022-10-11T07:10:33.479Z,88.95
2022-10-11T07:13:20.293Z,87.83
2022-10-11T07:16:08.875Z,86.74
2022-10-11T07:19:01.503Z,86.49
2022-10-11T07:21:43.238Z,86.19
2022-10-11T07:24:25.028Z,84.85
2022-10-11T07:27:06.720Z,83.89
2022-10-11T07:29:48.411Z,83.38
2022-10-11T07:32:30.036Z,82.29
2022-10-11T07:35:12.202Z,81.79
2022-10-11T07:37:55.448Z,81.20
2022-10-11T07:40:45.947Z,79.74
2022-10-11T07:43:27.721Z,79.85
2022-10-11T07:46:10.866Z,79.21
2022-10-11T07:48:52.944Z,78.11
2022-10-11T07:51:34.738Z,77.62
2022-10-11T07:54:16.433Z,77.72
2022-10-11T07:56:58.018Z,76.26
2022-10-11T07:59:39.914Z,74.63
2022-10-11T08:02:21.708Z,73.78
2022-10-11T08:05:03.911Z,73.59
2022-10-11T08:07:46.680Z,72.80
2022-10-11T08:10:28.736Z,72.29
2022-10-11T08:13:10.349Z,71.63
2022-10-11T08:15:52.110Z,72.80
2022-10-11T08:18:33.797Z,72.18
2022-10-11T08:21:17.539Z,70.47
2022-10-11T08:23:59.227Z,70.30
2022-10-11T08:26:41.328Z,69.93
2022-10-11T08:29:23.132Z,68.60
2022-10-11T08:32:05.447Z,69.45
2022-10-11T08:34:47.118Z,68.96
2022-10-11T08:37:28.821Z,69.11
2022-10-11T08:40:16.117Z,69.66
2022-10-11T08:43:14.410Z,69.03
2022-10-11T08:45:58.770Z,68.68
2022-10-11T08:48:44.163Z,68.07
2022-10-11T08:51:44.572Z,67.47
2022-10-11T08:54:37.222Z,65.85
2022-10-11T08:57:25.842Z,67.28
2022-10-11T09:00:17.144Z,67.13
2022-10-11T09:03:20.960Z,67.00
2022-10-11T09:06:21.103Z,66.98
2022-10-11T09:09:09.983Z,66.84
2022-10-11T09:12:21.033Z,66.27
2022-10-11T09:15:16.681Z,67.18
2022-10-11T09:18:15.675Z,67.48
2022-10-11T09:21:40.886Z,66.78
2022-10-11T09:25:00.162Z,66.04
2022-10-11T09:28:03.893Z,66.19
2022-10-11T09:30:52.696Z,66.91
2022-10-11T09:33:39.042Z,65.78
2022-10-11T09:36:50.002Z,65.84
2022-10-11T09:39:39.242Z,66.59
2022-10-11T09:42:21.007Z,65.83
2022-10-11T09:45:14.531Z,65.38
2022-10-11T09:48:00.521Z,64.00
2022-10-11T09:50:43.339Z,63.38
2022-10-11T09:53:50.120Z,63.85
2022-10-11T09:56:33.935Z,64.80
2022-10-11T09:59:32.874Z,64.12
2022-10-11T10:02:15.409Z,63.47
2022-10-11T10:05:06.887Z,64.14
2022-10-11T10:08:00.631Z,62.83
2022-10-11T10:11:02.732Z,63.73
2022-10-11T10:13:57.014Z,63.06
2022-10-11T10:16:38.706Z,61.24
2022-10-11T10:19:21.941Z,60.81
2022-10-11T10:22:03.995Z,60.62
2022-10-11T10:24:49.332Z,58.18
2022-10-11T10:27:32.141Z,57.73
2022-10-11T10:30:19.628Z,57.06
2022-10-11T10:33:08.857Z,56.37
2022-10-11T10:36:03.902Z,55.90
2022-10-11T10:39:19.426Z,56.43
2022-10-11T10:42:05.643Z,55.27
2022-10-11T10:44:53.131Z,54.16
2022-10-11T10:47:53.177Z,54.48
2022-10-11T10:50:52.262Z,53.00
2022-10-11T10:53:44.661Z,51.67
2022-10-11T10:56:46.978Z,52.73
2022-10-11T10:59:49.753Z,51.58
2022-10-11T11:02:41.486Z,50.50
2022-10-11T11:05:48.697Z,51.15
2022-10-11T11:09:03.479Z,50.87
2022-10-11T11:11:51.973Z,50.07
2022-10-11T11:14:48.217Z,50.99
2022-10-11T11:17:47.319Z,50.06
2022-10-11T11:20:51.482Z,50.62
2022-10-11T11:23:42.876Z,49.73
2022-10-11T11:26:44.318Z,48.97
2022-10-11T11:29:26.523Z,48.51
2022-10-11T11:32:31.674Z,49.29
2022-10-11T11:35:33.975Z,48.73
2022-10-11T11:38:37.938Z,48.01
2022-10-11T11:41:37.309Z,47.46
2022-10-11T11:44:43.508Z,48.49
2022-10-11T11:47:32.315Z,49.59
2022-10-11T11:50:23.913Z,50.30
2022-10-11T11:53:13.750Z,50.74
2022-10-11T11:56:04.515Z,48.80
2022-10-11T11:59:03.266Z,48.25
2022-10-11T12:01:55.681Z,47.90
2022-10-11T12:04:42.906Z,47.95
2022-10-11T12:07:28.103Z,48.16
2022-10-11T12:10:25.051Z,47.96
2022-10-11T12:13:07.592Z,47.64
2022-10-11T12:16:04.612Z,47.93
2022-10-11T12:19:14.301Z,48.83
2022-10-11T12:22:27.902Z,49.08
2022-10-11T12:25:09.692Z,49.63
2022-10-11T12:27:57.424Z,49.55
2022-10-11T12:30:48.144Z,48.92
2022-10-11T12:33:32.838Z,48.72
2022-10-11T12:36:32.694Z,48.78
2022-10-11T12:39:20.073Z,48.81
2022-10-11T12:42:17.866Z,49.72
2022-10-11T12:45:12.209Z,49.79
2022-10-11T12:48:37.094Z,50.59
2022-10-11T12:51:31.067Z,50.25
2022-10-11T12:54:39.286Z,50.96
2022-10-11T12:57:59.269Z,50.59
2022-10-11T13:01:02.935Z,50.28
2022-10-11T13:04:08.223Z,50.76
2022-10-11T13:06:56.801Z,50.21
2022-10-11T13:09:44.149Z,49.89
2022-10-11T13:12:43.090Z,50.42
2022-10-11T13:15:27.744Z,49.15
2022-10-11T13:18:16.087Z,48.21
2022-10-11T13:20:58.507Z,47.91
2022-10-11T13:23:40.914Z,47.77
2022-10-11T13:26:23.219Z,48.09
2022-10-11T13:29:28.769Z,48.28
2022-10-11T13:32:22.036Z,48.54
2022-10-11T13:35:07.615Z,49.01
2022-10-11T13:37:49.713Z,49.19
2022-10-11T13:40:32.039Z,49.55
2022-10-11T13:43:15.861Z,49.34
2022-10-11T13:46:00.317Z,48.16
2022-10-11T13:48:42.007Z,47.93
2022-10-11T13:51:32.317Z,48.38
2022-10-11T13:54:14.146Z,48.83
2022-10-11T13:56:59.572Z,49.30
2022-10-11T13:59:44.130Z,49.50
2022-10-11T14:02:27.357Z,48.88
2022-10-11T14:05:22.947Z,48.57
2022-10-11T14:08:08.231Z,49.04
2022-10-11T14:10:55.693Z,48.70
2022-10-11T14:13:44.307Z,48.36
2022-10-11T14:16:25.918Z,48.84
2022-10-11T14:19:11.194Z,48.96
2022-10-11T14:21:53.807Z,49.36
2022-10-11T14:24:36.032Z,50.44
2022-10-11T14:27:24.155Z,49.76
2022-10-11T14:30:26.074Z,50.08
2022-10-11T14:33:11.578Z,50.19
2022-10-11T14:35:54.107Z,49.62
2022-10-11T14:38:36.414Z,49.26
2022-10-11T14:41:18.922Z,49.13
2022-10-11T14:44:00.612Z,49.56
2022-10-11T14:46:44.658Z,48.70
2022-10-11T14:49:30.397Z,49.37
2022-10-11T14:52:13.575Z,50.56
2022-10-11T14:54:55.260Z,52.54
2022-10-11T14:57:36.850Z,52.80
2022-10-11T15:00:23.974Z,52.67
2022-10-11T15:03:08.446Z,53.52
2022-10-11T15:05:50.216Z,53.44
2022-10-11T15:08:33.376Z,53.13
2022-10-11T15:11:17.462Z,53.12
2022-10-11T15:13:59.184Z,53.70
2022-10-11T15:16:41.387Z,53.70
2022-10-11T15:19:25.541Z,53.34
2022-10-11T15:22:07.427Z,53.99
2022-10-11T15:24:51.619Z,54.50
2022-10-11T15:27:33.575Z,54.99
2022-10-11T15:30:21.603Z,55.23
2022-10-11T15:33:04.853Z,54.95
2022-10-11T15:35:47.453Z,54.51
2022-10-11T15:38:29.144Z,53.41
2022-10-11T15:41:15.760Z,52.63
2022-10-11T15:43:57.544Z,52.82
2022-10-11T15:46:42.028Z,53.21
2022-10-11T15:49:24.305Z,53.58
2022-10-11T15:52:05.995Z,53.69
2022-10-11T15:54:47.690Z,54.12
2022-10-11T15:57:29.378Z,54.52
2022-10-11T16:00:11.581Z,54.91
2022-10-11T16:02:57.515Z,55.15
2022-10-11T16:05:40.390Z,55.56
2022-10-11T16:08:22.183Z,56.10
2022-10-11T16:11:05.819Z,56.28
2022-10-11T16:13:48.944Z,56.74
2022-10-11T16:16:30.740Z,57.11
2022-10-11T16:19:13.246Z,57.36
2022-10-11T16:21:55.144Z,57.95
2022-10-11T16:24:37.270Z,58.17
2022-10-11T16:27:19.446Z,58.17
2022-10-11T16:30:01.754Z,58.81
2022-10-11T16:32:44.773Z,59.25
2022-10-11T16:35:31.538Z,59.50
2022-10-11T16:38:14.712Z,59.67
2022-10-11T16:40:56.502Z,59.99
2022-10-11T16:43:38.192Z,60.49
2022-10-11T16:46:20.705Z,60.99
2022-10-11T16:49:02.496Z,61.27
2022-10-11T16:51:44.607Z,61.61
2022-10-11T16:54:30.634Z,61.71
2022-10-11T16:57:14.756Z,62.18
2022-10-11T16:59:56.633Z,62.55
2022-10-11T17:02:38.429Z,62.78
2022-10-11T17:05:20.760Z,63.08
2022-10-11T17:08:02.422Z,63.14
2022-10-11T17:10:46.575Z,63.27
2022-10-11T17:13:28.828Z,63.82
2022-10-11T17:16:13.751Z,64.01
2022-10-11T17:18:57.286Z,64.16
2022-10-11T17:21:40.888Z,64.45
2022-10-11T17:24:23.217Z,64.87
2022-10-11T17:27:05.697Z,65.05
2022-10-11T17:29:47.622Z,65.14
2022-10-11T17:32:29.312Z,65.08
2022-10-11T17:35:12.028Z,65.33
2022-10-11T17:37:53.720Z,65.68
2022-10-11T17:40:35.820Z,65.71
2022-10-11T17:43:17.514Z,66.15
2022-10-11T17:46:02.496Z,66.31
2022-10-11T17:48:45.639Z,66.40
2022-10-11T17:51:27.857Z,66.42
2022-10-11T17:54:13.365Z,66.48
2022-10-11T17:56:55.936Z,66.33
2022-10-11T17:59:37.589Z,66.26
2022-10-11T18:02:19.961Z,66.45
2022-10-11T18:05:02.304Z,66.99
2022-10-11T18:07:44.986Z,66.39
2022-10-11T18:10:27.629Z,66.44
2022-10-11T18:13:14.545Z,67.02
2022-10-11T18:15:57.390Z,67.48
2022-10-11T18:18:39.972Z,67.90
2022-10-11T18:21:21.552Z,68.07
2022-10-11T18:24:15.124Z,68.20
2022-10-11T18:26:57.254Z,68.53
2022-10-11T18:29:39.740Z,68.91
2022-10-11T18:32:21.704Z,68.93
2022-10-11T18:35:04.517Z,68.62
2022-10-11T18:37:47.301Z,68.71
2022-10-11T18:40:29.602Z,68.97
2022-10-11T18:43:11.487Z,68.98
2022-10-11T18:46:03.402Z,69.50
2022-10-11T18:48:49.234Z,70.05
2022-10-11T18:51:34.803Z,70.47
2022-10-11T18:54:21.270Z,70.74
2022-10-11T18:57:03.334Z,71.19
2022-10-11T18:59:45.704Z,71.50
2022-10-11T19:02:28.977Z,71.63
2022-10-11T19:05:11.355Z,72.15
2022-10-11T19:07:54.171Z,72.61
2022-10-11T19:10:37.717Z,72.96
2022-10-11T19:13:20.465Z,73.11
2022-10-11T19:16:09.331Z,73.30
2022-10-11T19:18:54.151Z,73.49
2022-10-11T19:21:37.675Z,73.57
2022-10-11T19:24:22.611Z,73.61
2022-10-11T19:27:05.459Z,73.53
2022-10-11T19:29:47.224Z,73.52
2022-10-11T19:32:30.038Z,73.34
2022-10-11T19:35:16.410Z,73.07
2022-10-11T19:38:01.201Z,73.06
2022-10-11T19:40:42.793Z,73.27
2022-10-11T19:43:24.463Z,73.43
2022-10-11T19:46:09.622Z,73.80
2022-10-11T19:48:52.534Z,74.21
2022-10-11T19:51:35.289Z,74.61
2022-10-11T19:54:18.200Z,74.85
2022-10-11T19:56:59.897Z,74.86
2022-10-11T19:59:41.593Z,75.11
2022-10-11T20:02:23.484Z,75.47
2022-10-11T20:05:05.768Z,75.79
2022-10-11T20:07:47.496Z,76.01
2022-10-11T20:10:29.988Z,76.37
2022-10-11T20:13:12.402Z,76.29
2022-10-11T20:16:04.906Z,76.47
2022-10-11T20:18:46.848Z,76.25
2022-10-11T20:21:30.400Z,76.27
2022-10-11T20:24:13.292Z,76.29
2022-10-11T20:26:56.623Z,76.56
2022-10-11T20:29:39.986Z,76.53
2022-10-11T20:33:16.453Z,76.73
2022-10-11T20:36:14.513Z,76.61
2022-10-11T20:38:58.518Z,76.71
2022-10-11T20:41:40.499Z,76.35
2022-10-11T20:44:22.342Z,76.55
2022-10-11T20:47:06.698Z,76.71
2022-10-11T20:49:48.896Z,77.05
2022-10-11T20:52:30.995Z,77.14
2022-10-11T20:55:13.046Z,77.41
2022-10-11T20:57:56.940Z,77.30
2022-10-11T21:00:41.496Z,77.32
2022-10-11T21:03:23.418Z,77.62
2022-10-11T21:06:05.615Z,77.79
2022-10-11T21:08:47.288Z,77.90
2022-10-11T21:11:33.670Z,77.98
2022-10-11T21:14:15.491Z,78.26
2022-10-11T21:16:57.684Z,78.24
2022-10-11T21:19:40.399Z,78.66
2022-10-11T21:22:22.091Z,78.36
2022-10-11T21:25:04.394Z,78.78
2022-10-11T21:27:46.188Z,78.93
2022-10-11T21:30:27.878Z,78.94
2022-10-11T21:33:09.569Z,79.05
2022-10-11T21:35:51.260Z,79.20
2022-10-11T21:38:33.873Z,79.60
2022-10-11T21:41:18.832Z,79.62
2022-10-11T21:44:01.146Z,79.58
2022-10-11T21:47:05.562Z,79.87
2022-10-11T21:49:44.333Z,80.08
2022-10-11T21:52:25.981Z,79.99
2022-10-11T21:55:07.673Z,79.96
2022-10-11T21:57:49.363Z,79.57
2022-10-11T22:00:30.954Z,78.62
2022-10-11T22:03:12.643Z,78.24
2022-10-11T22:05:54.333Z,77.72
2022-10-11T22:08:36.948Z,78.48
2022-10-11T22:11:18.598Z,78.90
2022-10-11T22:14:00.330Z,79.11
2022-10-11T22:16:42.022Z,79.22
2022-10-11T22:19:24.427Z,79.50
2022-10-11T22:22:06.118Z,80.02
2022-10-11T22:24:47.706Z,80.37
2022-10-11T22:27:29.397Z,80.33
2022-10-11T22:30:11.703Z,80.76
2022-10-11T22:32:53.393Z,80.66
2022-10-11T22:35:37.552Z,80.78
2022-10-11T22:38:19.539Z,81.04
2022-10-11T22:41:01.231Z,81.03
2022-10-11T22:43:43.382Z,81.23
2022-10-11T22:46:25.124Z,81.14
2022-10-11T22:49:06.815Z,80.79
2022-10-11T22:51:49.837Z,81.24
2022-10-11T22:54:31.631Z,81.32
2022-10-11T22:57:13.326Z,81.66
2022-10-11T22:59:55.569Z,81.76
2022-10-11T23:02:40.287Z,81.48
2022-10-11T23:05:21.919Z,81.25
2022-10-11T23:08:03.772Z,81.43
2022-10-11T23:10:45.463Z,81.53
2022-10-11T23:13:27.153Z,81.86
2022-10-11T23:16:11.000Z,81.81
2022-10-11T23:18:53.811Z,81.79
2022-10-11T23:21:35.503Z,81.87
2022-10-11T23:24:17.194Z,82.01
2022-10-11T23:26:58.889Z,82.51
2022-10-11T23:29:41.395Z,82.62
2022-10-11T23:32:23.014Z,82.67
2022-10-11T23:35:05.319Z,82.69
2022-10-11T23:37:46.979Z,83.27
2022-10-11T23:40:28.670Z,82.82
2022-10-11T23:43:10.258Z,82.87
2022-10-11T23:45:52.154Z,83.23
2022-10-11T23:48:33.744Z,83.01
2022-10-11T23:51:16.049Z,83.73
2022-10-11T23:53:57.739Z,83.74
2022-10-11T23:56:39.430Z,83.47
2022-10-11T23:59:21.121Z,83.67
